ANA518 ROAH-WSSS
Flight info
| Callsign | ANA518 |
|---|---|
| Flight time | N/A |
| Altitude | 40000 |
| Route | OLVAL V91 MJC G581 TULTO Q13 KABAM N892 MIGUG/K0883F400 N892 MELAS/N0476F400 N892 MABAL MABAL2A |
| Aircraft | B772/H-SDE2E3FGHIJ5LORVWXY/LB1D1 |
Departure
| Time | N/A |
|---|---|
| Airport | Naha International Airport (ROAH) |
Arrival
| Time | 2026-05-03 23:06 |
|---|---|
| Airport | Singapore Changi Airport (WSSS) |
| Time | Latitude | Longitude | Altitude | Speed | Heading |
|---|---|---|---|---|---|
| 2026-05-03 20:43 | 23.88148 | 123.89018 | 38215 ft | 434 kts | 239° |
| 2026-05-03 20:43 | 23.86455 | 123.86281 | 38398 ft | 435 kts | 239° |
| 2026-05-03 20:43 | 23.84756 | 123.83544 | 38719 ft | 432 kts | 239° |
| 2026-05-03 20:44 | 23.83068 | 123.80831 | 38978 ft | 430 kts | 239° |
| 2026-05-03 20:44 | 23.81388 | 123.78136 | 39194 ft | 430 kts | 239° |
| 2026-05-03 20:44 | 23.79702 | 123.75431 | 39372 ft | 429 kts | 239° |
| 2026-05-03 20:44 | 23.78041 | 123.72769 | 39554 ft | 429 kts | 239° |
| 2026-05-03 20:45 | 23.76358 | 123.70074 | 39739 ft | 428 kts | 238° |
| 2026-05-03 20:45 | 23.74677 | 123.67384 | 39897 ft | 428 kts | 239° |
| 2026-05-03 20:45 | 23.72999 | 123.64699 | 39926 ft | 428 kts | 239° |
| 2026-05-03 20:46 | 23.69642 | 123.59331 | 39962 ft | 427 kts | 239° |
| 2026-05-03 20:46 | 23.66313 | 123.54014 | 39967 ft | 427 kts | 238° |
| 2026-05-03 20:47 | 23.62947 | 123.48643 | 39967 ft | 428 kts | 238° |
| 2026-05-03 20:47 | 23.59594 | 123.43300 | 39974 ft | 429 kts | 238° |
| 2026-05-03 20:48 | 23.56211 | 123.37913 | 39973 ft | 430 kts | 238° |
| 2026-05-03 20:48 | 23.52819 | 123.32519 | 39977 ft | 431 kts | 238° |
| 2026-05-03 20:49 | 23.46502 | 123.22488 | 39999 ft | 432 kts | 238° |
| 2026-05-03 20:49 | 23.41218 | 123.14112 | 39956 ft | 434 kts | 238° |
| 2026-05-03 20:50 | 23.34378 | 123.03286 | 39965 ft | 433 kts | 238° |
| 2026-05-03 20:50 | 23.27101 | 122.92756 | 39943 ft | 435 kts | 234° |
| 2026-05-03 20:51 | 23.19583 | 122.82443 | 39983 ft | 437 kts | 234° |
| 2026-05-03 20:51 | 23.12056 | 122.72076 | 39987 ft | 437 kts | 234° |
| 2026-05-03 20:52 | 23.05150 | 122.62578 | 39979 ft | 437 kts | 234° |
| 2026-05-03 20:52 | 22.97615 | 122.52236 | 39960 ft | 439 kts | 234° |
| 2026-05-03 20:53 | 22.90009 | 122.41818 | 39956 ft | 440 kts | 234° |
| 2026-05-03 20:53 | 22.82385 | 122.31396 | 39944 ft | 441 kts | 234° |
| 2026-05-03 20:54 | 22.74727 | 122.20949 | 39906 ft | 443 kts | 234° |
| 2026-05-03 20:54 | 22.65029 | 122.07749 | 39964 ft | 443 kts | 234° |
| 2026-05-03 20:55 | 22.57307 | 121.97262 | 39952 ft | 445 kts | 234° |
| 2026-05-03 20:55 | 22.49569 | 121.86774 | 39939 ft | 446 kts | 234° |
| 2026-05-03 20:56 | 22.41808 | 121.76274 | 39943 ft | 446 kts | 234° |
| 2026-05-03 20:56 | 22.34055 | 121.65809 | 39939 ft | 446 kts | 234° |
| 2026-05-03 20:57 | 22.26325 | 121.55409 | 39936 ft | 446 kts | 234° |
| 2026-05-03 20:57 | 22.18556 | 121.44970 | 39936 ft | 445 kts | 234° |
| 2026-05-03 20:58 | 22.10781 | 121.34561 | 39936 ft | 445 kts | 234° |
| 2026-05-03 20:58 | 22.02986 | 121.24152 | 39944 ft | 445 kts | 234° |
| 2026-05-03 20:59 | 21.95260 | 121.13840 | 39938 ft | 444 kts | 234° |
| 2026-05-03 20:59 | 21.87514 | 121.03472 | 39936 ft | 444 kts | 234° |
| 2026-05-03 21:00 | 21.81060 | 120.94851 | 39934 ft | 443 kts | 234° |
| 2026-05-03 21:00 | 21.72067 | 120.82862 | 39942 ft | 442 kts | 234° |
| 2026-05-03 21:01 | 21.64326 | 120.72562 | 39939 ft | 442 kts | 234° |
| 2026-05-03 21:01 | 21.56585 | 120.62279 | 39929 ft | 442 kts | 234° |
| 2026-05-03 21:02 | 21.48850 | 120.52068 | 39954 ft | 442 kts | 234° |
| 2026-05-03 21:02 | 21.41721 | 120.42678 | 39959 ft | 442 kts | 234° |
| 2026-05-03 21:03 | 21.33907 | 120.32397 | 39933 ft | 443 kts | 233° |
| 2026-05-03 21:03 | 21.26095 | 120.22138 | 39945 ft | 443 kts | 233° |
| 2026-05-03 21:04 | 21.18311 | 120.11936 | 39941 ft | 444 kts | 233° |
| 2026-05-03 21:04 | 21.10575 | 120.01812 | 39937 ft | 444 kts | 233° |
| 2026-05-03 21:05 | 21.03756 | 119.92903 | 39948 ft | 445 kts | 233° |
| 2026-05-03 21:05 | 20.95505 | 119.83081 | 39965 ft | 447 kts | 228° |
| 2026-05-03 21:06 | 20.88063 | 119.75122 | 39985 ft | 447 kts | 228° |
| 2026-05-03 21:06 | 20.80621 | 119.67117 | 39970 ft | 448 kts | 228° |
| 2026-05-03 21:07 | 20.71798 | 119.57627 | 39946 ft | 449 kts | 228° |
| 2026-05-03 21:07 | 20.62989 | 119.48171 | 39940 ft | 449 kts | 228° |
| 2026-05-03 21:08 | 20.54160 | 119.38710 | 39948 ft | 450 kts | 227° |
| 2026-05-03 21:08 | 20.45314 | 119.29248 | 39946 ft | 450 kts | 227° |
| 2026-05-03 21:09 | 20.36461 | 119.19794 | 39946 ft | 451 kts | 227° |
| 2026-05-03 21:09 | 20.27619 | 119.10369 | 39949 ft | 451 kts | 227° |
| 2026-05-03 21:10 | 20.18728 | 119.00907 | 39943 ft | 451 kts | 227° |
| 2026-05-03 21:10 | 20.09819 | 118.91442 | 39943 ft | 452 kts | 227° |
| 2026-05-03 21:11 | 20.00955 | 118.82041 | 39945 ft | 452 kts | 227° |
| 2026-05-03 21:11 | 19.92004 | 118.72563 | 39932 ft | 453 kts | 227° |
| 2026-05-03 21:12 | 19.83113 | 118.63166 | 39949 ft | 453 kts | 227° |
| 2026-05-03 21:12 | 19.74151 | 118.53708 | 39942 ft | 454 kts | 227° |
| 2026-05-03 21:13 | 19.65173 | 118.44250 | 39944 ft | 454 kts | 227° |
| 2026-05-03 21:13 | 19.56194 | 118.34806 | 39947 ft | 454 kts | 227° |
| 2026-05-03 21:14 | 19.47228 | 118.25392 | 39942 ft | 453 kts | 227° |
| 2026-05-03 21:14 | 19.38289 | 118.16017 | 39936 ft | 454 kts | 227° |
| 2026-05-03 21:15 | 19.29293 | 118.06599 | 39950 ft | 454 kts | 227° |
| 2026-05-03 21:15 | 19.20297 | 117.97180 | 39940 ft | 455 kts | 227° |
| 2026-05-03 21:16 | 19.11340 | 117.87814 | 39933 ft | 455 kts | 226° |
| 2026-05-03 21:16 | 19.02305 | 117.78383 | 39943 ft | 456 kts | 226° |
| 2026-05-03 21:17 | 18.94769 | 117.70551 | 39940 ft | 457 kts | 226° |
| 2026-05-03 21:17 | 18.84156 | 117.59535 | 39938 ft | 457 kts | 226° |
| 2026-05-03 21:18 | 18.75064 | 117.50111 | 39939 ft | 458 kts | 226° |
| 2026-05-03 21:18 | 18.65951 | 117.40680 | 39937 ft | 458 kts | 226° |
| 2026-05-03 21:19 | 18.56904 | 117.31332 | 39936 ft | 458 kts | 226° |
| 2026-05-03 21:19 | 18.47783 | 117.21923 | 39933 ft | 458 kts | 226° |
| 2026-05-03 21:20 | 18.38656 | 117.12522 | 39935 ft | 458 kts | 226° |
| 2026-05-03 21:20 | 18.29586 | 117.03194 | 39939 ft | 458 kts | 226° |
| 2026-05-03 21:21 | 18.20439 | 116.93801 | 39931 ft | 459 kts | 226° |
| 2026-05-03 21:21 | 18.11307 | 116.84438 | 39926 ft | 458 kts | 226° |
| 2026-05-03 21:22 | 18.02198 | 116.75113 | 39929 ft | 459 kts | 226° |
| 2026-05-03 21:22 | 17.93038 | 116.65750 | 39930 ft | 460 kts | 226° |
| 2026-05-03 21:23 | 17.85398 | 116.57950 | 39931 ft | 460 kts | 226° |
| 2026-05-03 21:23 | 17.76214 | 116.48589 | 39925 ft | 460 kts | 226° |
| 2026-05-03 21:24 | 17.67002 | 116.39224 | 39920 ft | 460 kts | 226° |
| 2026-05-03 21:24 | 17.57847 | 116.29925 | 39919 ft | 460 kts | 226° |
| 2026-05-03 21:25 | 17.48637 | 116.20583 | 39915 ft | 461 kts | 226° |
| 2026-05-03 21:25 | 17.39429 | 116.11257 | 39936 ft | 460 kts | 226° |
| 2026-05-03 21:26 | 17.30218 | 116.01942 | 39941 ft | 460 kts | 226° |
| 2026-05-03 21:26 | 17.21962 | 115.93604 | 39927 ft | 461 kts | 226° |
| 2026-05-03 21:27 | 17.12779 | 115.84343 | 39923 ft | 461 kts | 226° |
| 2026-05-03 21:27 | 17.03533 | 115.75032 | 39925 ft | 461 kts | 226° |
| 2026-05-03 21:28 | 16.94265 | 115.65712 | 39924 ft | 461 kts | 226° |
| 2026-05-03 21:28 | 16.84984 | 115.56393 | 39909 ft | 462 kts | 226° |
| 2026-05-03 21:29 | 16.75786 | 115.47169 | 39925 ft | 462 kts | 226° |
| 2026-05-03 21:29 | 16.66500 | 115.37871 | 39910 ft | 462 kts | 226° |
| 2026-05-03 21:30 | 16.57193 | 115.28566 | 39921 ft | 463 kts | 226° |
| 2026-05-03 21:30 | 16.47933 | 115.19320 | 39916 ft | 463 kts | 226° |
| 2026-05-03 21:31 | 16.38619 | 115.10033 | 39918 ft | 463 kts | 226° |
| 2026-05-03 21:31 | 16.29286 | 115.00740 | 39924 ft | 464 kts | 226° |
| 2026-05-03 21:32 | 16.19982 | 114.91489 | 39915 ft | 464 kts | 226° |
| 2026-05-03 21:32 | 16.10606 | 114.82179 | 39916 ft | 465 kts | 226° |
| 2026-05-03 21:33 | 16.01241 | 114.72893 | 39918 ft | 465 kts | 226° |
| 2026-05-03 21:33 | 15.91907 | 114.63650 | 39912 ft | 465 kts | 226° |
| 2026-05-03 21:34 | 15.82531 | 114.54378 | 39910 ft | 465 kts | 226° |
| 2026-05-03 21:34 | 15.73130 | 114.45094 | 39912 ft | 465 kts | 225° |
| 2026-05-03 21:35 | 15.63745 | 114.35837 | 39916 ft | 466 kts | 226° |
| 2026-05-03 21:35 | 15.54346 | 114.26579 | 39907 ft | 466 kts | 225° |
| 2026-05-03 21:36 | 15.44996 | 114.17381 | 39916 ft | 466 kts | 225° |
| 2026-05-03 21:36 | 15.35568 | 114.08117 | 39912 ft | 466 kts | 225° |
| 2026-05-03 21:37 | 15.26049 | 113.98996 | 39888 ft | 467 kts | 219° |
| 2026-05-03 21:37 | 15.15866 | 113.91486 | 39914 ft | 467 kts | 217° |
| 2026-05-03 21:38 | 15.06233 | 113.84373 | 39900 ft | 467 kts | 217° |
| 2026-05-03 21:38 | 14.95661 | 113.76534 | 39889 ft | 468 kts | 217° |
| 2026-05-03 21:39 | 14.87194 | 113.70267 | 39908 ft | 467 kts | 217° |
| 2026-05-03 21:39 | 14.76586 | 113.62423 | 39898 ft | 468 kts | 217° |
| 2026-05-03 21:40 | 14.65991 | 113.54597 | 39908 ft | 469 kts | 217° |
| 2026-05-03 21:40 | 14.55356 | 113.46750 | 39910 ft | 470 kts | 217° |
| 2026-05-03 21:41 | 14.44756 | 113.38937 | 39914 ft | 470 kts | 217° |
| 2026-05-03 21:41 | 14.34082 | 113.31060 | 39904 ft | 471 kts | 217° |
| 2026-05-03 21:42 | 14.23467 | 113.23237 | 39904 ft | 471 kts | 217° |
| 2026-05-03 21:42 | 14.12801 | 113.15385 | 39903 ft | 472 kts | 217° |
| 2026-05-03 21:43 | 14.02109 | 113.07522 | 39901 ft | 472 kts | 217° |
| 2026-05-03 21:43 | 13.91400 | 112.99666 | 39898 ft | 472 kts | 217° |
| 2026-05-03 21:44 | 13.80763 | 112.91880 | 39899 ft | 471 kts | 217° |
| 2026-05-03 21:44 | 13.70042 | 112.84037 | 39895 ft | 471 kts | 217° |
| 2026-05-03 21:45 | 13.59339 | 112.76216 | 39893 ft | 472 kts | 217° |
| 2026-05-03 21:45 | 13.48634 | 112.68402 | 39890 ft | 472 kts | 217° |
| 2026-05-03 21:46 | 13.37946 | 112.60609 | 39892 ft | 473 kts | 217° |
| 2026-05-03 21:46 | 13.27191 | 112.52776 | 39894 ft | 474 kts | 217° |
| 2026-05-03 21:47 | 13.16403 | 112.44929 | 39888 ft | 475 kts | 217° |
| 2026-05-03 21:47 | 13.05650 | 112.37115 | 39892 ft | 476 kts | 217° |
| 2026-05-03 21:48 | 12.94828 | 112.29258 | 39889 ft | 476 kts | 217° |
| 2026-05-03 21:48 | 12.83989 | 112.21399 | 39879 ft | 477 kts | 217° |
| 2026-05-03 21:49 | 12.73147 | 112.13546 | 39887 ft | 477 kts | 217° |
| 2026-05-03 21:49 | 12.62280 | 112.05683 | 39886 ft | 478 kts | 217° |
| 2026-05-03 21:50 | 12.51394 | 111.97813 | 39878 ft | 479 kts | 217° |
| 2026-05-03 21:50 | 12.40498 | 111.89943 | 39887 ft | 480 kts | 217° |
| 2026-05-03 21:51 | 12.29595 | 111.82048 | 39885 ft | 480 kts | 217° |
| 2026-05-03 21:51 | 12.18757 | 111.74163 | 39878 ft | 481 kts | 217° |
| 2026-05-03 21:52 | 12.07841 | 111.66237 | 39888 ft | 481 kts | 217° |
| 2026-05-03 21:52 | 11.96893 | 111.58296 | 39882 ft | 482 kts | 217° |
| 2026-05-03 21:53 | 11.85929 | 111.50351 | 39873 ft | 483 kts | 217° |
| 2026-05-03 21:53 | 11.75009 | 111.42447 | 39880 ft | 483 kts | 217° |
| 2026-05-03 21:54 | 11.63995 | 111.34481 | 39878 ft | 484 kts | 217° |
| 2026-05-03 21:54 | 11.52993 | 111.26532 | 39873 ft | 485 kts | 217° |
| 2026-05-03 21:55 | 11.41965 | 111.18572 | 39876 ft | 485 kts | 217° |
| 2026-05-03 21:55 | 11.31001 | 111.10664 | 39875 ft | 486 kts | 217° |
| 2026-05-03 21:56 | 11.19879 | 111.02763 | 39879 ft | 487 kts | 216° |
| 2026-05-03 21:56 | 11.08752 | 110.94889 | 39872 ft | 487 kts | 216° |
| 2026-05-03 21:57 | 10.97597 | 110.86988 | 39876 ft | 487 kts | 216° |
| 2026-05-03 21:57 | 10.86453 | 110.79104 | 39876 ft | 487 kts | 216° |
| 2026-05-03 21:58 | 10.75371 | 110.71271 | 39872 ft | 487 kts | 216° |
| 2026-05-03 21:58 | 10.64226 | 110.63401 | 39873 ft | 487 kts | 216° |
| 2026-05-03 21:59 | 10.53061 | 110.55524 | 39870 ft | 487 kts | 216° |
| 2026-05-03 21:59 | 10.41980 | 110.47713 | 39874 ft | 487 kts | 216° |
| 2026-05-03 22:00 | 10.30833 | 110.39861 | 39874 ft | 487 kts | 216° |
| 2026-05-03 22:00 | 10.19675 | 110.32005 | 39872 ft | 488 kts | 216° |
| 2026-05-03 22:01 | 10.08531 | 110.24128 | 39875 ft | 488 kts | 216° |
| 2026-05-03 22:01 | 9.97355 | 110.16233 | 39871 ft | 489 kts | 216° |
| 2026-05-03 22:02 | 9.86186 | 110.08351 | 39873 ft | 489 kts | 215° |
| 2026-05-03 22:02 | 9.75097 | 110.00531 | 39868 ft | 488 kts | 215° |
| 2026-05-03 22:03 | 9.63940 | 109.92669 | 39870 ft | 488 kts | 215° |
| 2026-05-03 22:03 | 9.52765 | 109.84800 | 39866 ft | 488 kts | 215° |
| 2026-05-03 22:04 | 9.41609 | 109.76961 | 39879 ft | 488 kts | 215° |
| 2026-05-03 22:04 | 9.30446 | 109.69120 | 39875 ft | 487 kts | 215° |
| 2026-05-03 22:05 | 9.19304 | 109.61298 | 39867 ft | 487 kts | 215° |
| 2026-05-03 22:05 | 9.08146 | 109.53471 | 39870 ft | 487 kts | 215° |
| 2026-05-03 22:06 | 8.97042 | 109.45688 | 39870 ft | 488 kts | 215° |
| 2026-05-03 22:06 | 8.87754 | 109.39181 | 39865 ft | 487 kts | 215° |
| 2026-05-03 22:07 | 8.76588 | 109.31385 | 39868 ft | 487 kts | 214° |
| 2026-05-03 22:07 | 8.65408 | 109.23624 | 39867 ft | 487 kts | 214° |
| 2026-05-03 22:08 | 8.54214 | 109.15846 | 39863 ft | 487 kts | 214° |
| 2026-05-03 22:08 | 8.43101 | 109.08132 | 39870 ft | 487 kts | 214° |
| 2026-05-03 22:09 | 8.31935 | 109.00386 | 39867 ft | 487 kts | 214° |
| 2026-05-03 22:10 | 8.15148 | 108.88750 | 39868 ft | 488 kts | 214° |
| 2026-05-03 22:10 | 8.03900 | 108.80960 | 39874 ft | 488 kts | 214° |
| 2026-05-03 22:11 | 7.92744 | 108.73240 | 39873 ft | 489 kts | 214° |
| 2026-05-03 22:11 | 7.81516 | 108.65475 | 39871 ft | 489 kts | 214° |
| 2026-05-03 22:12 | 7.70275 | 108.57706 | 39870 ft | 489 kts | 214° |
| 2026-05-03 22:12 | 7.59079 | 108.49973 | 39868 ft | 489 kts | 214° |
| 2026-05-03 22:13 | 7.47818 | 108.42200 | 39874 ft | 489 kts | 214° |
| 2026-05-03 22:13 | 7.36635 | 108.34485 | 39867 ft | 489 kts | 214° |
| 2026-05-03 22:14 | 7.25392 | 108.26734 | 39865 ft | 488 kts | 214° |
| 2026-05-03 22:14 | 7.14157 | 108.18992 | 39869 ft | 488 kts | 214° |
| 2026-05-03 22:15 | 7.03000 | 108.11278 | 39865 ft | 488 kts | 214° |
| 2026-05-03 22:15 | 6.91824 | 108.03476 | 39871 ft | 488 kts | 214° |
| 2026-05-03 22:16 | 6.80717 | 107.95737 | 39868 ft | 488 kts | 214° |
| 2026-05-03 22:16 | 6.69526 | 107.87947 | 39866 ft | 489 kts | 214° |
| 2026-05-03 22:17 | 6.58340 | 107.80165 | 39865 ft | 489 kts | 214° |
| 2026-05-03 22:17 | 6.47126 | 107.72366 | 39868 ft | 489 kts | 214° |
| 2026-05-03 22:18 | 6.35907 | 107.64569 | 39866 ft | 490 kts | 214° |
| 2026-05-03 22:18 | 6.24747 | 107.56818 | 39864 ft | 490 kts | 214° |
| 2026-05-03 22:19 | 6.13486 | 107.49000 | 39861 ft | 490 kts | 214° |
| 2026-05-03 22:19 | 6.02290 | 107.41231 | 39861 ft | 491 kts | 214° |
| 2026-05-03 22:20 | 5.91019 | 107.33414 | 39860 ft | 490 kts | 214° |
| 2026-05-03 22:20 | 5.79777 | 107.25622 | 39858 ft | 490 kts | 214° |
| 2026-05-03 22:21 | 5.68596 | 107.17875 | 39862 ft | 490 kts | 214° |
| 2026-05-03 22:21 | 5.57346 | 107.10084 | 39860 ft | 490 kts | 214° |
| 2026-05-03 22:22 | 5.46124 | 107.02316 | 39873 ft | 489 kts | 214° |
| 2026-05-03 22:22 | 5.34926 | 106.94569 | 39857 ft | 487 kts | 214° |
| 2026-05-03 22:23 | 5.23792 | 106.86869 | 39858 ft | 485 kts | 214° |
| 2026-05-03 22:23 | 5.12765 | 106.79246 | 39862 ft | 483 kts | 214° |
| 2026-05-03 22:24 | 5.01688 | 106.71593 | 39865 ft | 482 kts | 214° |
| 2026-05-03 22:24 | 4.90602 | 106.63936 | 39864 ft | 483 kts | 214° |
| 2026-05-03 22:25 | 4.79534 | 106.56294 | 39865 ft | 483 kts | 214° |
| 2026-05-03 22:25 | 4.68515 | 106.48690 | 39864 ft | 483 kts | 214° |
| 2026-05-03 22:26 | 4.57414 | 106.41032 | 39859 ft | 484 kts | 214° |
| 2026-05-03 22:26 | 4.46320 | 106.33380 | 39859 ft | 483 kts | 214° |
| 2026-05-03 22:27 | 4.35246 | 106.25744 | 39860 ft | 483 kts | 214° |
| 2026-05-03 22:27 | 4.25418 | 106.17302 | 39852 ft | 483 kts | 230° |
| 2026-05-03 22:28 | 4.21207 | 106.12056 | 39864 ft | 482 kts | 231° |
| 2026-05-03 22:28 | 4.17038 | 106.06836 | 39862 ft | 483 kts | 231° |
| 2026-05-03 22:29 | 4.12808 | 106.01596 | 39864 ft | 483 kts | 231° |
| 2026-05-03 22:29 | 4.08565 | 105.96371 | 39859 ft | 483 kts | 231° |
| 2026-05-03 22:30 | 4.04310 | 105.91135 | 39864 ft | 484 kts | 231° |
| 2026-05-03 22:30 | 4.00078 | 105.85925 | 39864 ft | 484 kts | 231° |
| 2026-05-03 22:31 | 3.95817 | 105.80678 | 39864 ft | 485 kts | 231° |
| 2026-05-03 22:31 | 3.91579 | 105.75460 | 39864 ft | 485 kts | 231° |
| 2026-05-03 22:32 | 3.87310 | 105.70206 | 39864 ft | 486 kts | 231° |
| 2026-05-03 22:32 | 3.83043 | 105.64955 | 39863 ft | 486 kts | 231° |
| 2026-05-03 22:33 | 3.78772 | 105.59698 | 39860 ft | 486 kts | 231° |
| 2026-05-03 22:33 | 3.74531 | 105.54480 | 39865 ft | 487 kts | 231° |
| 2026-05-03 22:34 | 3.70259 | 105.49217 | 39864 ft | 487 kts | 231° |
| 2026-05-03 22:34 | 3.65983 | 105.43938 | 39854 ft | 487 kts | 231° |
| 2026-05-03 22:35 | 3.61701 | 105.38651 | 39858 ft | 487 kts | 231° |
| 2026-05-03 22:35 | 3.57462 | 105.33419 | 39863 ft | 486 kts | 231° |
| 2026-05-03 22:36 | 3.53194 | 105.28152 | 39862 ft | 486 kts | 231° |
| 2026-05-03 22:36 | 3.48937 | 105.22899 | 39863 ft | 484 kts | 231° |
| 2026-05-03 22:37 | 3.44722 | 105.17704 | 39863 ft | 483 kts | 231° |
| 2026-05-03 22:37 | 3.40486 | 105.12487 | 39861 ft | 482 kts | 231° |
| 2026-05-03 22:37 | 3.38361 | 105.09870 | 39504 ft | 485 kts | 231° |
| 2026-05-03 22:38 | 3.36236 | 105.07252 | 39061 ft | 481 kts | 231° |
| 2026-05-03 22:38 | 3.34162 | 105.04697 | 38639 ft | 476 kts | 231° |
| 2026-05-03 22:38 | 3.32084 | 105.02137 | 38167 ft | 472 kts | 231° |
| 2026-05-03 22:38 | 3.30020 | 104.99594 | 37698 ft | 468 kts | 231° |
| 2026-05-03 22:39 | 3.27976 | 104.97076 | 37263 ft | 463 kts | 231° |
| 2026-05-03 22:39 | 3.25954 | 104.94584 | 36846 ft | 459 kts | 231° |
| 2026-05-03 22:39 | 3.23951 | 104.92117 | 36452 ft | 454 kts | 231° |
| 2026-05-03 22:39 | 3.21967 | 104.89673 | 36040 ft | 451 kts | 231° |
| 2026-05-03 22:40 | 3.19987 | 104.87235 | 35625 ft | 447 kts | 231° |
| 2026-05-03 22:40 | 3.18052 | 104.84852 | 35203 ft | 445 kts | 231° |
| 2026-05-03 22:40 | 3.16107 | 104.82456 | 34774 ft | 442 kts | 231° |
| 2026-05-03 22:40 | 3.14171 | 104.80072 | 34340 ft | 441 kts | 231° |
| 2026-05-03 22:41 | 3.12243 | 104.77698 | 33909 ft | 439 kts | 231° |
| 2026-05-03 22:41 | 3.10314 | 104.75323 | 33428 ft | 437 kts | 231° |
| 2026-05-03 22:41 | 3.08404 | 104.72970 | 32987 ft | 435 kts | 231° |
| 2026-05-03 22:41 | 3.06503 | 104.70629 | 32550 ft | 432 kts | 231° |
| 2026-05-03 22:42 | 3.04606 | 104.68295 | 32128 ft | 430 kts | 231° |
| 2026-05-03 22:42 | 3.02663 | 104.66028 | 31714 ft | 427 kts | 227° |
| 2026-05-03 22:42 | 3.00648 | 104.63851 | 31295 ft | 425 kts | 226° |
| 2026-05-03 22:42 | 2.98649 | 104.61730 | 30887 ft | 423 kts | 226° |
| 2026-05-03 22:43 | 2.96630 | 104.59598 | 30473 ft | 421 kts | 226° |
| 2026-05-03 22:43 | 2.94620 | 104.57470 | 30059 ft | 419 kts | 226° |
| 2026-05-03 22:43 | 2.92624 | 104.55351 | 29589 ft | 418 kts | 226° |
| 2026-05-03 22:43 | 2.90632 | 104.53229 | 29106 ft | 417 kts | 226° |
| 2026-05-03 22:44 | 2.88652 | 104.51116 | 28644 ft | 415 kts | 226° |
| 2026-05-03 22:44 | 2.86697 | 104.49027 | 28149 ft | 403 kts | 226° |
| 2026-05-03 22:44 | 2.84804 | 104.47002 | 27737 ft | 397 kts | 226° |
| 2026-05-03 22:44 | 2.82923 | 104.44992 | 27316 ft | 395 kts | 226° |
| 2026-05-03 22:45 | 2.81052 | 104.42993 | 26885 ft | 393 kts | 226° |
| 2026-05-03 22:45 | 2.79181 | 104.40993 | 26463 ft | 391 kts | 226° |
| 2026-05-03 22:45 | 2.77347 | 104.39035 | 26055 ft | 390 kts | 226° |
| 2026-05-03 22:45 | 2.75493 | 104.37053 | 25628 ft | 389 kts | 226° |
| 2026-05-03 22:46 | 2.73667 | 104.35102 | 25205 ft | 389 kts | 226° |
| 2026-05-03 22:46 | 2.71819 | 104.33128 | 24784 ft | 388 kts | 226° |
| 2026-05-03 22:46 | 2.69974 | 104.31157 | 24364 ft | 388 kts | 226° |
| 2026-05-03 22:46 | 2.68123 | 104.29180 | 23943 ft | 388 kts | 226° |
| 2026-05-03 22:47 | 2.66280 | 104.27210 | 23526 ft | 388 kts | 226° |
| 2026-05-03 22:47 | 2.64455 | 104.25261 | 23062 ft | 388 kts | 226° |
| 2026-05-03 22:47 | 2.62605 | 104.23284 | 22606 ft | 387 kts | 226° |
| 2026-05-03 22:47 | 2.60766 | 104.21319 | 22174 ft | 385 kts | 225° |
| 2026-05-03 22:48 | 2.58937 | 104.19365 | 21747 ft | 384 kts | 225° |
| 2026-05-03 22:48 | 2.57133 | 104.17438 | 21326 ft | 382 kts | 225° |
| 2026-05-03 22:48 | 2.55324 | 104.15505 | 20883 ft | 372 kts | 225° |
| 2026-05-03 22:48 | 2.53600 | 104.13663 | 20476 ft | 356 kts | 225° |
| 2026-05-03 22:49 | 2.51900 | 104.11927 | 20081 ft | 349 kts | 217° |
| 2026-05-03 22:49 | 2.49794 | 104.10773 | 19697 ft | 343 kts | 195° |
| 2026-05-03 22:49 | 2.47434 | 104.10410 | 19307 ft | 337 kts | 179° |
| 2026-05-03 22:49 | 2.45125 | 104.10397 | 18906 ft | 336 kts | 177° |
| 2026-05-03 22:50 | 2.42782 | 104.10418 | 18500 ft | 337 kts | 177° |
| 2026-05-03 22:50 | 2.40432 | 104.10445 | 18079 ft | 338 kts | 177° |
| 2026-05-03 22:50 | 2.38072 | 104.10467 | 17618 ft | 338 kts | 177° |
| 2026-05-03 22:50 | 2.35717 | 104.10482 | 17193 ft | 338 kts | 178° |
| 2026-05-03 22:51 | 2.33366 | 104.10491 | 16762 ft | 337 kts | 178° |
| 2026-05-03 22:51 | 2.31022 | 104.10497 | 16351 ft | 337 kts | 178° |
| 2026-05-03 22:51 | 2.28682 | 104.10499 | 15929 ft | 336 kts | 178° |
| 2026-05-03 22:51 | 2.26368 | 104.10501 | 15514 ft | 336 kts | 178° |
| 2026-05-03 22:52 | 2.24068 | 104.10501 | 15074 ft | 322 kts | 178° |
| 2026-05-03 22:52 | 2.21824 | 104.10500 | 14697 ft | 322 kts | 178° |
| 2026-05-03 22:52 | 2.20336 | 104.10501 | 14412 ft | 323 kts | 178° |
| 2026-05-03 22:52 | 2.18084 | 104.10501 | 13989 ft | 324 kts | 178° |
| 2026-05-03 22:53 | 2.15087 | 104.10502 | 13400 ft | 325 kts | 179° |
| 2026-05-03 22:53 | 2.12840 | 104.10501 | 12937 ft | 316 kts | 179° |
| 2026-05-03 22:53 | 2.11365 | 104.10501 | 12673 ft | 313 kts | 179° |
| 2026-05-03 22:53 | 2.09221 | 104.10501 | 12353 ft | 309 kts | 179° |
| 2026-05-03 22:54 | 2.07082 | 104.10501 | 11985 ft | 309 kts | 179° |
| 2026-05-03 22:54 | 2.04958 | 104.10501 | 11796 ft | 301 kts | 179° |
| 2026-05-03 22:54 | 2.02870 | 104.10500 | 11652 ft | 292 kts | 179° |
| 2026-05-03 22:54 | 2.00869 | 104.10500 | 11523 ft | 283 kts | 179° |
| 2026-05-03 22:55 | 1.98924 | 104.10500 | 11386 ft | 275 kts | 179° |
| 2026-05-03 22:55 | 1.97031 | 104.10465 | 11076 ft | 275 kts | 181° |
| 2026-05-03 22:55 | 1.95115 | 104.10396 | 10760 ft | 275 kts | 181° |
| 2026-05-03 22:55 | 1.93201 | 104.10322 | 10455 ft | 275 kts | 182° |
| 2026-05-03 22:56 | 1.91282 | 104.10248 | 10130 ft | 276 kts | 182° |
| 2026-05-03 22:56 | 1.89363 | 104.10176 | 9782 ft | 270 kts | 182° |
| 2026-05-03 22:56 | 1.87509 | 104.10108 | 9442 ft | 266 kts | 182° |
| 2026-05-03 22:56 | 1.85661 | 104.10040 | 9115 ft | 266 kts | 182° |
| 2026-05-03 22:57 | 1.83808 | 104.09973 | 8789 ft | 266 kts | 182° |
| 2026-05-03 22:57 | 1.81957 | 104.09906 | 8468 ft | 267 kts | 182° |
| 2026-05-03 22:57 | 1.80100 | 104.09840 | 8141 ft | 267 kts | 182° |
| 2026-05-03 22:57 | 1.78236 | 104.09773 | 7825 ft | 267 kts | 182° |
| 2026-05-03 22:58 | 1.76440 | 104.09710 | 7487 ft | 258 kts | 182° |
| 2026-05-03 22:58 | 1.74644 | 104.09645 | 7201 ft | 258 kts | 183° |
| 2026-05-03 22:58 | 1.72847 | 104.09581 | 6888 ft | 259 kts | 183° |
| 2026-05-03 22:58 | 1.71036 | 104.09517 | 6590 ft | 260 kts | 183° |
| 2026-05-03 22:59 | 1.69224 | 104.09452 | 6256 ft | 261 kts | 183° |
| 2026-05-03 22:59 | 1.67420 | 104.09388 | 5920 ft | 253 kts | 183° |
| 2026-05-03 22:59 | 1.65708 | 104.09326 | 5618 ft | 243 kts | 183° |
| 2026-05-03 22:59 | 1.64019 | 104.09267 | 5326 ft | 243 kts | 183° |
| 2026-05-03 23:00 | 1.62354 | 104.09203 | 5033 ft | 240 kts | 186° |
| 2026-05-03 23:00 | 1.60775 | 104.08783 | 4725 ft | 233 kts | 206° |
| 2026-05-03 23:00 | 1.59316 | 104.08097 | 4474 ft | 230 kts | 205° |
| 2026-05-03 23:00 | 1.57842 | 104.07468 | 4153 ft | 230 kts | 204° |
| 2026-05-03 23:01 | 1.56363 | 104.06846 | 3846 ft | 230 kts | 204° |
| 2026-05-03 23:01 | 1.54923 | 104.06237 | 3527 ft | 217 kts | 204° |
| 2026-05-03 23:01 | 1.53581 | 104.05667 | 3272 ft | 201 kts | 204° |
| 2026-05-03 23:01 | 1.52302 | 104.05124 | 3025 ft | 199 kts | 204° |
| 2026-05-03 23:02 | 1.51032 | 104.04585 | 2768 ft | 198 kts | 204° |
| 2026-05-03 23:02 | 1.49783 | 104.04054 | 2516 ft | 198 kts | 204° |
| 2026-05-03 23:02 | 1.48527 | 104.03521 | 2276 ft | 192 kts | 203° |
| 2026-05-03 23:02 | 1.47351 | 104.03022 | 2042 ft | 176 kts | 203° |
| 2026-05-03 23:03 | 1.46269 | 104.02563 | 1798 ft | 161 kts | 203° |
| 2026-05-03 23:03 | 1.45288 | 104.02147 | 1597 ft | 148 kts | 203° |
| 2026-05-03 23:03 | 1.44359 | 104.01753 | 1413 ft | 144 kts | 203° |
| 2026-05-03 23:03 | 1.43431 | 104.01359 | 1266 ft | 146 kts | 203° |
| 2026-05-03 23:04 | 1.42495 | 104.00961 | 1054 ft | 146 kts | 203° |
| 2026-05-03 23:04 | 1.41562 | 104.00566 | 870 ft | 145 kts | 202° |
| 2026-05-03 23:04 | 1.40630 | 104.00172 | 682 ft | 145 kts | 202° |
| 2026-05-03 23:04 | 1.39708 | 103.99780 | 501 ft | 143 kts | 202° |
| 2026-05-03 23:05 | 1.38794 | 103.99392 | 309 ft | 142 kts | 202° |
| 2026-05-03 23:05 | 1.37899 | 103.99022 | 104 ft | 142 kts | 202° |
| 2026-05-03 23:05 | 1.37011 | 103.98657 | 37 ft | 129 kts | 202° |
| 2026-05-03 23:05 | 1.36388 | 103.98379 | 35 ft | 89 kts | 205° |
| 2026-05-03 23:06 | 1.35961 | 103.98196 | 35 ft | 46 kts | 202° |
| 2026-05-03 23:06 | 1.35704 | 103.98113 | 35 ft | 27 kts | 182° |
| 2026-05-03 23:06 | 1.35515 | 103.98126 | 35 ft | 27 kts | 172° |
| 2026-05-03 23:06 | 1.35347 | 103.98128 | 35 ft | 24 kts | 196° |
| 2026-05-03 23:07 | 1.35213 | 103.98075 | 35 ft | 18 kts | 202° |
| 2026-05-03 23:07 | 1.35095 | 103.98025 | 35 ft | 18 kts | 202° |
| 2026-05-03 23:07 | 1.35017 | 103.97993 | 35 ft | 10 kts | 202° |
| 2026-05-03 23:07 | 1.34936 | 103.97959 | 35 ft | 13 kts | 202° |
| 2026-05-03 23:08 | 1.34853 | 103.97933 | 35 ft | 12 kts | 169° |
| 2026-05-03 23:08 | 1.34791 | 103.98029 | 35 ft | 21 kts | 113° |
| 2026-05-03 23:08 | 1.34733 | 103.98165 | 35 ft | 21 kts | 113° |
| 2026-05-03 23:08 | 1.34675 | 103.98300 | 47 ft | 21 kts | 113° |
| 2026-05-03 23:09 | 1.34620 | 103.98429 | 50 ft | 17 kts | 113° |
| 2026-05-03 23:09 | 1.34569 | 103.98551 | 39 ft | 21 kts | 113° |
| 2026-05-03 23:09 | 1.34527 | 103.98649 | 35 ft | 12 kts | 108° |
| 2026-05-03 23:09 | 1.34582 | 103.98720 | 35 ft | 16 kts | 24° |
| 2026-05-03 23:10 | 1.34663 | 103.98754 | 35 ft | 13 kts | 25° |
| 2026-05-03 23:10 | 1.34744 | 103.98788 | 35 ft | 13 kts | 22° |
| 2026-05-03 23:10 | 1.34825 | 103.98822 | 35 ft | 13 kts | 22° |
| 2026-05-03 23:10 | 1.34905 | 103.98854 | 35 ft | 13 kts | 22° |
| 2026-05-03 23:11 | 1.34984 | 103.98888 | 35 ft | 12 kts | 22° |
| 2026-05-03 23:11 | 1.35055 | 103.98920 | 35 ft | 10 kts | 35° |
| 2026-05-03 23:11 | 1.35079 | 103.98970 | 35 ft | 7 kts | 77° |
| 2026-05-03 23:11 | 1.35085 | 103.99013 | 35 ft | 3 kts | 84° |
| 2026-05-03 23:12 | 1.35086 | 103.99031 | 35 ft | 5 kts | 84° |
| 2026-05-03 23:12 | 1.35087 | 103.99040 | 35 ft | 0 kts | 84° |